Houlton, Wisconsin
Current Conditions -  °F | °C
As of 6:31 AM on Wednesday 26 Nov 2014 (Local Time) from K21D Reporting Station
Overcast Overcast  
Wind Chill: 18°   Ceiling: 4100
Heat Index: 25°   Visibility: 10mi
Dew Point: 18°   Wind: 6mph
Humidity: 74%   Direction: 70°ENE
Pressure: 30.08"   Gusts: NA
Location:  45.067°N, 92.7557°W
Report Text: K21D 261231Z AUTO 07005KT 10SM SCT017 BKN041 OVC047 M04/M08 A3008 RMK AO2
Loading
Personal Weather Stations






























Interactive Weather Map New forecast layout! Learn more

10-Day Weather Forecast

Advertisements
Track Severe Weather on mobile